sensor_id;sensor_type;location;lat;lon;timestamp;pressure;altitude;pressure_sealevel;temperature;humidity
72118;BME280;59992;47.490;8.736;2022-07-24T00:00:40;96946.84;;;19.16;85.43
72118;BME280;59992;47.490;8.736;2022-07-24T00:03:30;96944.85;;;19.16;85.33
72118;BME280;59992;47.490;8.736;2022-07-24T00:06:21;96942.94;;;19.15;84.71
72118;BME280;59992;47.490;8.736;2022-07-24T00:09:11;96947.02;;;19.15;83.96
72118;BME280;59992;47.490;8.736;2022-07-24T00:12:02;96953.15;;;19.15;84.40
72118;BME280;59992;47.490;8.736;2022-07-24T00:14:52;96961.61;;;19.14;85.36
72118;BME280;59992;47.490;8.736;2022-07-24T00:17:43;96963.08;;;19.14;86.19
72118;BME280;59992;47.490;8.736;2022-07-24T00:20:33;96964.45;;;19.14;86.54
72118;BME280;59992;47.490;8.736;2022-07-24T00:23:24;96968.65;;;19.16;84.79
72118;BME280;59992;47.490;8.736;2022-07-24T00:26:16;96964.22;;;19.19;85.47
72118;BME280;59992;47.490;8.736;2022-07-24T00:29:07;96962.41;;;19.22;84.67
72118;BME280;59992;47.490;8.736;2022-07-24T00:31:57;96958.35;;;19.27;84.40
72118;BME280;59992;47.490;8.736;2022-07-24T00:34:48;96954.55;;;19.29;84.92
72118;BME280;59992;47.490;8.736;2022-07-24T00:37:39;96955.48;;;19.29;84.32
72118;BME280;59992;47.490;8.736;2022-07-24T00:40:30;96959.45;;;19.26;85.35
72118;BME280;59992;47.490;8.736;2022-07-24T00:43:20;96952.29;;;19.22;84.47
72118;BME280;59992;47.490;8.736;2022-07-24T00:46:11;96952.30;;;19.19;84.91
72118;BME280;59992;47.490;8.736;2022-07-24T00:49:02;96952.14;;;19.16;85.33
72118;BME280;59992;47.490;8.736;2022-07-24T00:51:54;96956.39;;;19.14;84.92
72118;BME280;59992;47.490;8.736;2022-07-24T00:54:45;96953.59;;;19.11;85.27
72118;BME280;59992;47.490;8.736;2022-07-24T00:57:35;96948.06;;;19.06;86.14
72118;BME280;59992;47.490;8.736;2022-07-24T01:00:26;96947.66;;;19.02;85.82
72118;BME280;59992;47.490;8.736;2022-07-24T01:03:17;96944.88;;;18.97;87.32
72118;BME280;59992;47.490;8.736;2022-07-24T01:06:08;96941.60;;;18.95;86.13
72118;BME280;59992;47.490;8.736;2022-07-24T01:08:59;96939.72;;;18.93;86.54
72118;BME280;59992;47.490;8.736;2022-07-24T01:11:50;96944.06;;;18.90;86.47
72118;BME280;59992;47.490;8.736;2022-07-24T01:14:41;96944.55;;;18.87;85.90
72118;BME280;59992;47.490;8.736;2022-07-24T01:17:33;96944.12;;;18.85;86.08
72118;BME280;59992;47.490;8.736;2022-07-24T01:20:24;96944.16;;;18.82;86.88
72118;BME280;59992;47.490;8.736;2022-07-24T01:23:15;96950.09;;;18.80;86.88
72118;BME280;59992;47.490;8.736;2022-07-24T01:26:07;96952.92;;;18.81;86.86
72118;BME280;59992;47.490;8.736;2022-07-24T01:28:57;96952.46;;;18.81;88.43
72118;BME280;59992;47.490;8.736;2022-07-24T01:31:48;96948.69;;;18.82;88.52
72118;BME280;59992;47.490;8.736;2022-07-24T01:34:39;96949.44;;;18.83;88.35
72118;BME280;59992;47.490;8.736;2022-07-24T01:37:29;96947.62;;;18.82;88.02
72118;BME280;59992;47.490;8.736;2022-07-24T01:40:21;96947.93;;;18.82;86.62
72118;BME280;59992;47.490;8.736;2022-07-24T01:43:12;96945.48;;;18.80;86.69
72118;BME280;59992;47.490;8.736;2022-07-24T01:46:02;96944.65;;;18.80;88.71
72118;BME280;59992;47.490;8.736;2022-07-24T01:48:53;96943.39;;;18.78;88.29
72118;BME280;59992;47.490;8.736;2022-07-24T01:51:44;96943.16;;;18.77;87.41
72118;BME280;59992;47.490;8.736;2022-07-24T01:54:34;96944.86;;;18.76;87.32
72118;BME280;59992;47.490;8.736;2022-07-24T01:57:25;96942.19;;;18.75;87.45
72118;BME280;59992;47.490;8.736;2022-07-24T02:00:17;96941.14;;;18.72;86.99
72118;BME280;59992;47.490;8.736;2022-07-24T02:03:07;96938.34;;;18.69;88.40
72118;BME280;59992;47.490;8.736;2022-07-24T02:05:58;96942.10;;;18.64;88.80
72118;BME280;59992;47.490;8.736;2022-07-24T02:08:49;96943.52;;;18.60;88.72
72118;BME280;59992;47.490;8.736;2022-07-24T02:11:39;96952.14;;;18.59;88.25
72118;BME280;59992;47.490;8.736;2022-07-24T02:14:30;96949.94;;;18.57;88.48
72118;BME280;59992;47.490;8.736;2022-07-24T02:17:21;96944.13;;;18.55;88.33
72118;BME280;59992;47.490;8.736;2022-07-24T02:20:12;96945.63;;;18.52;87.35
72118;BME280;59992;47.490;8.736;2022-07-24T02:23:03;96945.20;;;18.48;89.53
72118;BME280;59992;47.490;8.736;2022-07-24T02:25:54;96949.61;;;18.45;89.87
72118;BME280;59992;47.490;8.736;2022-07-24T02:28:44;96951.83;;;18.45;89.97
72118;BME280;59992;47.490;8.736;2022-07-24T02:31:35;96956.30;;;18.43;89.36
72118;BME280;59992;47.490;8.736;2022-07-24T02:34:26;96951.86;;;18.43;89.04
72118;BME280;59992;47.490;8.736;2022-07-24T02:37:17;96953.94;;;18.41;90.12
72118;BME280;59992;47.490;8.736;2022-07-24T02:40:10;96953.39;;;18.41;88.32
72118;BME280;59992;47.490;8.736;2022-07-24T02:43:01;96953.70;;;18.41;88.54
72118;BME280;59992;47.490;8.736;2022-07-24T02:45:51;96959.52;;;18.43;89.37
72118;BME280;59992;47.490;8.736;2022-07-24T02:48:42;96955.39;;;18.44;90.02
72118;BME280;59992;47.490;8.736;2022-07-24T02:51:33;96954.70;;;18.44;90.14
72118;BME280;59992;47.490;8.736;2022-07-24T02:54:23;96954.14;;;18.45;88.96
72118;BME280;59992;47.490;8.736;2022-07-24T02:57:14;96954.67;;;18.45;90.52
72118;BME280;59992;47.490;8.736;2022-07-24T03:00:08;96957.66;;;18.45;90.88
72118;BME280;59992;47.490;8.736;2022-07-24T03:02:59;96958.13;;;18.45;90.20
72118;BME280;59992;47.490;8.736;2022-07-24T03:05:49;96959.20;;;18.45;90.16
72118;BME280;59992;47.490;8.736;2022-07-24T03:08:39;96956.23;;;18.44;89.55
72118;BME280;59992;47.490;8.736;2022-07-24T03:11:30;96954.64;;;18.40;89.69
72118;BME280;59992;47.490;8.736;2022-07-24T03:14:20;96956.37;;;18.36;89.41
72118;BME280;59992;47.490;8.736;2022-07-24T03:17:11;96952.27;;;18.32;89.66
72118;BME280;59992;47.490;8.736;2022-07-24T03:20:02;96951.00;;;18.28;89.22
72118;BME280;59992;47.490;8.736;2022-07-24T03:22:53;96950.89;;;18.25;90.42
72118;BME280;59992;47.490;8.736;2022-07-24T03:25:44;96951.17;;;18.20;90.24
72118;BME280;59992;47.490;8.736;2022-07-24T03:28:36;96950.02;;;18.20;89.34
72118;BME280;59992;47.490;8.736;2022-07-24T03:31:27;96948.65;;;18.19;89.10
72118;BME280;59992;47.490;8.736;2022-07-24T03:34:17;96949.64;;;18.14;90.46
72118;BME280;59992;47.490;8.736;2022-07-24T03:37:08;96951.66;;;18.11;89.47
72118;BME280;59992;47.490;8.736;2022-07-24T03:39:59;96949.68;;;18.10;89.45
72118;BME280;59992;47.490;8.736;2022-07-24T03:42:49;96956.34;;;18.11;89.66
72118;BME280;59992;47.490;8.736;2022-07-24T03:45:40;96958.40;;;18.11;88.93
72118;BME280;59992;47.490;8.736;2022-07-24T03:48:31;96959.80;;;18.09;90.44
72118;BME280;59992;47.490;8.736;2022-07-24T03:51:21;96960.90;;;18.06;90.62
72118;BME280;59992;47.490;8.736;2022-07-24T03:54:12;96959.63;;;18.03;91.12
72118;BME280;59992;47.490;8.736;2022-07-24T03:57:02;96961.71;;;18.01;91.34
72118;BME280;59992;47.490;8.736;2022-07-24T03:59:53;96965.79;;;18.01;90.83
72118;BME280;59992;47.490;8.736;2022-07-24T04:02:43;96966.71;;;18.00;90.82
72118;BME280;59992;47.490;8.736;2022-07-24T04:05:34;96973.15;;;18.00;91.35
72118;BME280;59992;47.490;8.736;2022-07-24T04:08:25;96970.98;;;18.03;90.32
72118;BME280;59992;47.490;8.736;2022-07-24T04:11:15;96971.77;;;18.01;90.85
72118;BME280;59992;47.490;8.736;2022-07-24T04:14:06;96979.03;;;18.02;91.40
72118;BME280;59992;47.490;8.736;2022-07-24T04:16:56;96982.38;;;18.04;90.56
72118;BME280;59992;47.490;8.736;2022-07-24T04:19:47;96981.88;;;18.09;90.27
72118;BME280;59992;47.490;8.736;2022-07-24T04:22:37;96977.77;;;18.14;91.38
72118;BME280;59992;47.490;8.736;2022-07-24T04:25:28;96976.60;;;18.23;91.04
72118;BME280;59992;47.490;8.736;2022-07-24T04:28:19;96981.98;;;18.37;90.69
72118;BME280;59992;47.490;8.736;2022-07-24T04:31:09;96982.77;;;18.57;90.16
72118;BME280;59992;47.490;8.736;2022-07-24T04:34:00;96983.50;;;18.84;88.71
72118;BME280;59992;47.490;8.736;2022-07-24T04:36:51;96978.76;;;19.13;87.59
72118;BME280;59992;47.490;8.736;2022-07-24T04:39:41;96984.02;;;19.39;87.30
72118;BME280;59992;47.490;8.736;2022-07-24T04:42:32;96987.36;;;19.66;85.69
72118;BME280;59992;47.490;8.736;2022-07-24T04:45:23;96989.53;;;19.88;84.83
72118;BME280;59992;47.490;8.736;2022-07-24T04:48:14;96989.91;;;20.16;82.63
72118;BME280;59992;47.490;8.736;2022-07-24T04:51:05;96991.28;;;20.38;82.68
72118;BME280;59992;47.490;8.736;2022-07-24T04:53:55;96992.27;;;20.70;81.82
72118;BME280;59992;47.490;8.736;2022-07-24T04:56:45;96989.39;;;21.14;82.27
72118;BME280;59992;47.490;8.736;2022-07-24T04:59:36;96985.91;;;21.61;80.11
72118;BME280;59992;47.490;8.736;2022-07-24T05:02:27;96989.38;;;22.03;76.55
72118;BME280;59992;47.490;8.736;2022-07-24T05:05:17;96989.67;;;22.42;76.07
72118;BME280;59992;47.490;8.736;2022-07-24T05:08:08;96994.04;;;22.96;77.02
72118;BME280;59992;47.490;8.736;2022-07-24T05:10:59;96994.06;;;23.48;71.32
72118;BME280;59992;47.490;8.736;2022-07-24T05:13:50;96993.84;;;23.65;69.72
72118;BME280;59992;47.490;8.736;2022-07-24T05:16:42;96994.65;;;23.94;70.10
72118;BME280;59992;47.490;8.736;2022-07-24T05:19:32;96995.48;;;24.17;67.74
72118;BME280;59992;47.490;8.736;2022-07-24T05:22:23;96990.44;;;24.49;67.07
72118;BME280;59992;47.490;8.736;2022-07-24T05:25:14;97001.21;;;24.94;66.24
72118;BME280;59992;47.490;8.736;2022-07-24T05:28:05;96999.91;;;25.47;64.54
72118;BME280;59992;47.490;8.736;2022-07-24T05:30:58;96997.38;;;26.02;62.58
72118;BME280;59992;47.490;8.736;2022-07-24T05:33:48;96998.72;;;26.57;61.42
72118;BME280;59992;47.490;8.736;2022-07-24T05:36:39;96997.06;;;27.06;57.60
72118;BME280;59992;47.490;8.736;2022-07-24T05:39:30;96998.09;;;27.37;57.97
72118;BME280;59992;47.490;8.736;2022-07-24T05:42:20;96998.39;;;27.69;55.35
72118;BME280;59992;47.490;8.736;2022-07-24T05:45:11;96997.74;;;28.20;54.90
72118;BME280;59992;47.490;8.736;2022-07-24T05:48:02;96996.58;;;28.64;53.04
72118;BME280;59992;47.490;8.736;2022-07-24T05:50:53;96997.33;;;29.15;55.14
72118;BME280;59992;47.490;8.736;2022-07-24T05:53:44;97001.31;;;29.73;51.76
72118;BME280;59992;47.490;8.736;2022-07-24T05:56:34;97000.52;;;29.93;48.03
72118;BME280;59992;47.490;8.736;2022-07-24T05:59:25;97002.95;;;30.01;48.59
72118;BME280;59992;47.490;8.736;2022-07-24T06:02:15;97001.15;;;30.39;51.80
72118;BME280;59992;47.490;8.736;2022-07-24T06:05:07;96999.41;;;30.63;46.05
72118;BME280;59992;47.490;8.736;2022-07-24T06:07:57;96997.05;;;30.45;45.72
72118;BME280;59992;47.490;8.736;2022-07-24T06:10:48;96998.93;;;30.34;46.68
72118;BME280;59992;47.490;8.736;2022-07-24T06:13:38;96995.11;;;30.57;47.12
72118;BME280;59992;47.490;8.736;2022-07-24T06:16:29;96996.48;;;30.91;46.52
72118;BME280;59992;47.490;8.736;2022-07-24T06:19:19;96996.48;;;31.43;48.13
72118;BME280;59992;47.490;8.736;2022-07-24T06:22:11;96999.60;;;32.04;47.10
72118;BME280;59992;47.490;8.736;2022-07-24T06:25:01;96996.23;;;32.34;42.62
72118;BME280;59992;47.490;8.736;2022-07-24T06:27:52;96998.48;;;32.43;42.04
72118;BME280;59992;47.490;8.736;2022-07-24T06:30:44;96997.41;;;32.48;41.84
72118;BME280;59992;47.490;8.736;2022-07-24T06:33:34;96996.71;;;32.28;41.39
72118;BME280;59992;47.490;8.736;2022-07-24T06:36:25;96992.92;;;32.17;42.03
72118;BME280;59992;47.490;8.736;2022-07-24T06:39:16;96992.20;;;32.22;41.97
72118;BME280;59992;47.490;8.736;2022-07-24T06:42:07;96990.27;;;32.46;42.60
72118;BME280;59992;47.490;8.736;2022-07-24T06:44:57;96999.73;;;32.57;40.74
72118;BME280;59992;47.490;8.736;2022-07-24T06:47:48;96994.54;;;32.55;41.72
72118;BME280;59992;47.490;8.736;2022-07-24T06:50:38;96992.64;;;32.79;41.82
72118;BME280;59992;47.490;8.736;2022-07-24T06:53:29;96996.54;;;33.18;41.82
72118;BME280;59992;47.490;8.736;2022-07-24T06:56:20;96998.55;;;33.56;39.74
72118;BME280;59992;47.490;8.736;2022-07-24T06:59:10;96996.38;;;33.84;39.16
72118;BME280;59992;47.490;8.736;2022-07-24T07:02:01;96990.06;;;33.90;39.18
72118;BME280;59992;47.490;8.736;2022-07-24T07:04:51;96993.98;;;33.59;39.28
72118;BME280;59992;47.490;8.736;2022-07-24T07:07:42;96992.08;;;33.59;39.05
72118;BME280;59992;47.490;8.736;2022-07-24T07:10:33;96990.99;;;33.45;38.30
72118;BME280;59992;47.490;8.736;2022-07-24T07:13:23;96989.27;;;33.03;39.51
72118;BME280;59992;47.490;8.736;2022-07-24T07:16:14;96989.67;;;32.70;40.25
72118;BME280;59992;47.490;8.736;2022-07-24T07:19:05;96981.55;;;32.40;41.53
72118;BME280;59992;47.490;8.736;2022-07-24T07:21:57;96984.12;;;32.65;40.98
72118;BME280;59992;47.490;8.736;2022-07-24T07:24:48;96982.75;;;32.82;40.43
72118;BME280;59992;47.490;8.736;2022-07-24T07:27:39;96981.30;;;33.15;39.59
72118;BME280;59992;47.490;8.736;2022-07-24T07:30:30;96979.55;;;33.23;38.65
72118;BME280;59992;47.490;8.736;2022-07-24T07:33:20;96980.39;;;33.15;39.87
72118;BME280;59992;47.490;8.736;2022-07-24T07:36:11;96980.10;;;33.07;39.52
72118;BME280;59992;47.490;8.736;2022-07-24T07:39:02;96979.95;;;32.37;40.63
72118;BME280;59992;47.490;8.736;2022-07-24T07:41:53;96978.58;;;32.48;40.77
72118;BME280;59992;47.490;8.736;2022-07-24T07:44:44;96974.95;;;32.66;40.83
72118;BME280;59992;47.490;8.736;2022-07-24T07:47:36;96973.19;;;32.31;40.93
72118;BME280;59992;47.490;8.736;2022-07-24T07:50:27;96964.02;;;32.40;40.39
72118;BME280;59992;47.490;8.736;2022-07-24T07:53:17;96962.08;;;32.53;41.70
72118;BME280;59992;47.490;8.736;2022-07-24T07:56:08;96962.62;;;33.09;40.61
72118;BME280;59992;47.490;8.736;2022-07-24T07:58:59;96964.76;;;33.27;39.22
72118;BME280;59992;47.490;8.736;2022-07-24T08:01:50;96956.95;;;33.10;38.75
72118;BME280;59992;47.490;8.736;2022-07-24T08:04:41;96952.44;;;32.77;39.66
72118;BME280;59992;47.490;8.736;2022-07-24T08:07:31;96955.10;;;32.58;40.71
72118;BME280;59992;47.490;8.736;2022-07-24T08:10:22;96953.09;;;32.41;41.05
72118;BME280;59992;47.490;8.736;2022-07-24T08:13:13;96954.90;;;32.26;41.77
72118;BME280;59992;47.490;8.736;2022-07-24T08:16:05;96952.59;;;32.86;40.16
72118;BME280;59992;47.490;8.736;2022-07-24T08:18:55;96950.46;;;32.99;39.71
72118;BME280;59992;47.490;8.736;2022-07-24T08:21:46;96953.13;;;33.11;38.05
72118;BME280;59992;47.490;8.736;2022-07-24T08:24:37;96950.77;;;33.23;37.64
72118;BME280;59992;47.490;8.736;2022-07-24T08:27:28;96949.33;;;33.17;38.43
72118;BME280;59992;47.490;8.736;2022-07-24T08:30:18;96947.86;;;33.21;39.28
72118;BME280;59992;47.490;8.736;2022-07-24T08:33:09;96947.84;;;32.81;38.64
72118;BME280;59992;47.490;8.736;2022-07-24T08:35:59;96943.33;;;32.73;39.20
72118;BME280;59992;47.490;8.736;2022-07-24T08:38:50;96947.85;;;32.20;40.65
72118;BME280;59992;47.490;8.736;2022-07-24T08:41:41;96947.33;;;31.92;41.47
72118;BME280;59992;47.490;8.736;2022-07-24T08:44:31;96941.48;;;31.61;43.36
72118;BME280;59992;47.490;8.736;2022-07-24T08:47:22;96944.49;;;31.91;41.91
72118;BME280;59992;47.490;8.736;2022-07-24T08:50:15;96942.63;;;31.97;42.45
72118;BME280;59992;47.490;8.736;2022-07-24T08:53:06;96945.25;;;32.36;40.80
72118;BME280;59992;47.490;8.736;2022-07-24T08:55:57;96947.42;;;32.46;40.73
72118;BME280;59992;47.490;8.736;2022-07-24T08:58:48;96949.14;;;32.85;39.26
72118;BME280;59992;47.490;8.736;2022-07-24T09:01:40;96945.92;;;33.04;38.36
72118;BME280;59992;47.490;8.736;2022-07-24T09:04:37;96945.25;;;32.84;39.01
72118;BME280;59992;47.490;8.736;2022-07-24T09:07:30;96941.55;;;32.77;40.31
72118;BME280;59992;47.490;8.736;2022-07-24T09:10:20;96938.09;;;32.46;40.64
72118;BME280;59992;47.490;8.736;2022-07-24T09:13:16;96934.50;;;32.43;40.42
72118;BME280;59992;47.490;8.736;2022-07-24T09:16:07;96936.95;;;32.90;39.56
72118;BME280;59992;47.490;8.736;2022-07-24T09:19:11;96936.30;;;32.76;39.25
72118;BME280;59992;47.490;8.736;2022-07-24T09:22:02;96932.74;;;32.43;41.48
72118;BME280;59992;47.490;8.736;2022-07-24T09:25:07;96927.92;;;32.74;39.71
72118;BME280;59992;47.490;8.736;2022-07-24T09:27:59;96924.38;;;32.97;39.47
72118;BME280;59992;47.490;8.736;2022-07-24T09:30:50;96927.95;;;33.03;38.54
72118;BME280;59992;47.490;8.736;2022-07-24T09:33:41;96921.74;;;33.01;38.54
72118;BME280;59992;47.490;8.736;2022-07-24T09:36:32;96924.53;;;33.15;38.23
72118;BME280;59992;47.490;8.736;2022-07-24T09:39:24;96915.42;;;32.95;39.00
72118;BME280;59992;47.490;8.736;2022-07-24T09:42:15;96917.46;;;32.65;39.31
72118;BME280;59992;47.490;8.736;2022-07-24T09:45:08;96912.24;;;32.25;41.85
72118;BME280;59992;47.490;8.736;2022-07-24T09:48:00;96911.21;;;32.18;40.30
72118;BME280;59992;47.490;8.736;2022-07-24T09:50:53;96912.61;;;32.15;41.50
72118;BME280;59992;47.490;8.736;2022-07-24T09:53:46;96917.97;;;32.22;40.84
72118;BME280;59992;47.490;8.736;2022-07-24T09:56:37;96914.73;;;32.07;40.11
72118;BME280;59992;47.490;8.736;2022-07-24T09:59:30;96910.75;;;31.77;39.43
72118;BME280;59992;47.490;8.736;2022-07-24T10:02:25;96911.98;;;31.45;40.23
72118;BME280;59992;47.490;8.736;2022-07-24T10:05:16;96910.75;;;31.20;40.14
72118;BME280;59992;47.490;8.736;2022-07-24T10:08:08;96904.86;;;30.84;42.30
72118;BME280;59992;47.490;8.736;2022-07-24T10:11:02;96906.30;;;30.70;42.21
72118;BME280;59992;47.490;8.736;2022-07-24T10:13:53;96904.42;;;30.43;42.22
72118;BME280;59992;47.490;8.736;2022-07-24T10:16:47;96899.19;;;30.36;42.91
72118;BME280;59992;47.490;8.736;2022-07-24T10:19:45;96897.21;;;30.38;43.04
72118;BME280;59992;47.490;8.736;2022-07-24T10:22:48;96897.95;;;30.37;42.55
72118;BME280;59992;47.490;8.736;2022-07-24T10:25:54;96889.23;;;30.32;42.18
72118;BME280;59992;47.490;8.736;2022-07-24T10:28:46;96888.38;;;30.17;42.33
72118;BME280;59992;47.490;8.736;2022-07-24T10:31:44;96885.20;;;30.08;42.03
72118;BME280;59992;47.490;8.736;2022-07-24T10:34:41;96882.52;;;30.00;42.63
72118;BME280;59992;47.490;8.736;2022-07-24T10:37:41;96882.17;;;29.87;40.56
72118;BME280;59992;47.490;8.736;2022-07-24T10:40:39;96882.73;;;29.88;40.40
72118;BME280;59992;47.490;8.736;2022-07-24T10:43:32;96878.48;;;29.76;40.47
72118;BME280;59992;47.490;8.736;2022-07-24T10:46:22;96874.75;;;29.77;40.18
72118;BME280;59992;47.490;8.736;2022-07-24T10:49:34;96872.02;;;29.81;40.70
72118;BME280;59992;47.490;8.736;2022-07-24T10:52:28;96868.14;;;29.81;38.68
72118;BME280;59992;47.490;8.736;2022-07-24T10:55:29;96869.30;;;29.70;37.45
72118;BME280;59992;47.490;8.736;2022-07-24T10:58:19;96864.59;;;29.58;37.62
72118;BME280;59992;47.490;8.736;2022-07-24T11:01:32;96857.48;;;29.41;37.00
72118;BME280;59992;47.490;8.736;2022-07-24T11:04:30;96858.98;;;29.23;38.30
72118;BME280;59992;47.490;8.736;2022-07-24T11:07:20;96856.00;;;29.15;38.17
72118;BME280;59992;47.490;8.736;2022-07-24T11:10:11;96857.66;;;29.09;38.18
72118;BME280;59992;47.490;8.736;2022-07-24T11:13:02;96851.00;;;28.98;39.22
72118;BME280;59992;47.490;8.736;2022-07-24T11:16:18;96851.37;;;28.86;38.99
72118;BME280;59992;47.490;8.736;2022-07-24T11:19:30;96850.89;;;28.77;39.44
72118;BME280;59992;47.490;8.736;2022-07-24T11:22:38;96844.91;;;28.70;40.15
72118;BME280;59992;47.490;8.736;2022-07-24T11:25:29;96846.83;;;28.68;40.30
72118;BME280;59992;47.490;8.736;2022-07-24T11:28:20;96841.41;;;28.64;40.29
72118;BME280;59992;47.490;8.736;2022-07-24T11:31:12;96834.73;;;28.60;40.37
72118;BME280;59992;47.490;8.736;2022-07-24T11:34:05;96829.55;;;28.57;40.56
72118;BME280;59992;47.490;8.736;2022-07-24T11:36:59;96828.29;;;28.56;40.66
72118;BME280;59992;47.490;8.736;2022-07-24T11:39:50;96825.81;;;28.57;40.70
72118;BME280;59992;47.490;8.736;2022-07-24T11:42:40;96822.40;;;28.58;40.85
72118;BME280;59992;47.490;8.736;2022-07-24T11:45:31;96821.98;;;28.56;40.63
72118;BME280;59992;47.490;8.736;2022-07-24T11:48:22;96818.39;;;28.47;41.30
72118;BME280;59992;47.490;8.736;2022-07-24T11:51:12;96814.47;;;28.38;41.15
72118;BME280;59992;47.490;8.736;2022-07-24T11:54:03;96813.75;;;28.33;41.47
72118;BME280;59992;47.490;8.736;2022-07-24T11:56:54;96804.78;;;28.30;43.54
72118;BME280;59992;47.490;8.736;2022-07-24T11:59:46;96801.67;;;28.32;42.25
72118;BME280;59992;47.490;8.736;2022-07-24T12:02:37;96796.80;;;28.36;42.94
72118;BME280;59992;47.490;8.736;2022-07-24T12:05:34;96797.90;;;28.44;42.11
72118;BME280;59992;47.490;8.736;2022-07-24T12:08:26;96793.80;;;28.44;41.40
72118;BME280;59992;47.490;8.736;2022-07-24T12:11:22;96788.85;;;28.39;41.36
72118;BME280;59992;47.490;8.736;2022-07-24T12:14:17;96785.29;;;28.30;41.87
72118;BME280;59992;47.490;8.736;2022-07-24T12:17:08;96781.98;;;28.25;40.81
72118;BME280;59992;47.490;8.736;2022-07-24T12:19:59;96781.48;;;28.25;42.29
72118;BME280;59992;47.490;8.736;2022-07-24T12:22:51;96778.13;;;28.29;42.43
72118;BME280;59992;47.490;8.736;2022-07-24T12:25:42;96773.69;;;28.30;42.17
72118;BME280;59992;47.490;8.736;2022-07-24T12:28:33;96768.10;;;28.34;43.57
72118;BME280;59992;47.490;8.736;2022-07-24T12:31:24;96764.31;;;28.39;42.95
72118;BME280;59992;47.490;8.736;2022-07-24T12:34:15;96762.67;;;28.46;43.64
72118;BME280;59992;47.490;8.736;2022-07-24T12:37:16;96762.87;;;28.55;42.55
72118;BME280;59992;47.490;8.736;2022-07-24T12:40:20;96761.27;;;28.60;41.24
72118;BME280;59992;47.490;8.736;2022-07-24T12:43:12;96755.04;;;28.61;41.16
72118;BME280;59992;47.490;8.736;2022-07-24T12:46:10;96750.27;;;28.61;40.80
72118;BME280;59992;47.490;8.736;2022-07-24T12:49:02;96744.91;;;28.57;41.17
72118;BME280;59992;47.490;8.736;2022-07-24T12:51:54;96743.20;;;28.53;42.03
72118;BME280;59992;47.490;8.736;2022-07-24T12:54:47;96738.02;;;28.56;41.86
72118;BME280;59992;47.490;8.736;2022-07-24T12:57:37;96736.00;;;28.62;41.98
72118;BME280;59992;47.490;8.736;2022-07-24T13:00:29;96729.98;;;28.68;43.12
72118;BME280;59992;47.490;8.736;2022-07-24T13:03:26;96734.05;;;28.75;41.76
72118;BME280;59992;47.490;8.736;2022-07-24T13:06:18;96722.85;;;28.76;42.68
72118;BME280;59992;47.490;8.736;2022-07-24T13:09:10;96729.17;;;28.84;41.61
72118;BME280;59992;47.490;8.736;2022-07-24T13:12:02;96723.24;;;28.87;41.97
72118;BME280;59992;47.490;8.736;2022-07-24T13:14:52;96719.58;;;28.87;41.57
72118;BME280;59992;47.490;8.736;2022-07-24T13:17:43;96722.47;;;28.92;41.76
72118;BME280;59992;47.490;8.736;2022-07-24T13:20:33;96714.88;;;28.97;40.88
72118;BME280;59992;47.490;8.736;2022-07-24T13:23:24;96707.08;;;28.99;41.26
72118;BME280;59992;47.490;8.736;2022-07-24T13:26:15;96701.98;;;29.05;41.33
72118;BME280;59992;47.490;8.736;2022-07-24T13:29:06;96701.13;;;29.09;40.98
72118;BME280;59992;47.490;8.736;2022-07-24T13:31:57;96698.42;;;29.11;39.73
72118;BME280;59992;47.490;8.736;2022-07-24T13:34:47;96697.55;;;29.12;40.28
72118;BME280;59992;47.490;8.736;2022-07-24T13:37:38;96697.31;;;29.16;39.64
72118;BME280;59992;47.490;8.736;2022-07-24T13:40:29;96698.70;;;29.18;39.61
72118;BME280;59992;47.490;8.736;2022-07-24T13:43:19;96690.73;;;29.17;40.16
72118;BME280;59992;47.490;8.736;2022-07-24T13:46:10;96687.15;;;29.16;39.86
72118;BME280;59992;47.490;8.736;2022-07-24T13:49:03;96684.69;;;29.14;39.51
72118;BME280;59992;47.490;8.736;2022-07-24T13:51:56;96680.35;;;29.13;39.01
72118;BME280;59992;47.490;8.736;2022-07-24T13:54:46;96673.65;;;29.11;39.06
72118;BME280;59992;47.490;8.736;2022-07-24T13:57:37;96665.15;;;29.09;39.06
72118;BME280;59992;47.490;8.736;2022-07-24T14:00:27;96665.17;;;29.07;39.01
72118;BME280;59992;47.490;8.736;2022-07-24T14:03:18;96664.14;;;29.08;39.14
72118;BME280;59992;47.490;8.736;2022-07-24T14:06:10;96656.31;;;29.13;39.53
72118;BME280;59992;47.490;8.736;2022-07-24T14:09:00;96654.70;;;29.18;39.49
72118;BME280;59992;47.490;8.736;2022-07-24T14:11:51;96653.05;;;29.22;39.22
72118;BME280;59992;47.490;8.736;2022-07-24T14:14:42;96654.45;;;29.27;39.60
72118;BME280;59992;47.490;8.736;2022-07-24T14:17:33;96648.35;;;29.28;39.61
72118;BME280;59992;47.490;8.736;2022-07-24T14:20:23;96644.05;;;29.27;38.78
72118;BME280;59992;47.490;8.736;2022-07-24T14:23:14;96642.67;;;29.22;38.25
72118;BME280;59992;47.490;8.736;2022-07-24T14:26:04;96640.27;;;29.20;38.74
72118;BME280;59992;47.490;8.736;2022-07-24T14:28:55;96634.17;;;29.25;39.62
72118;BME280;59992;47.490;8.736;2022-07-24T14:31:46;96628.39;;;29.29;39.23
72118;BME280;59992;47.490;8.736;2022-07-24T14:34:37;96626.17;;;29.30;40.04
72118;BME280;59992;47.490;8.736;2022-07-24T14:37:27;96621.27;;;29.26;40.24
72118;BME280;59992;47.490;8.736;2022-07-24T14:40:18;96620.95;;;29.25;38.75
72118;BME280;59992;47.490;8.736;2022-07-24T14:43:09;96622.97;;;29.27;38.08
72118;BME280;59992;47.490;8.736;2022-07-24T14:45:59;96624.58;;;29.31;38.21
72118;BME280;59992;47.490;8.736;2022-07-24T14:48:50;96622.61;;;29.31;38.06
72118;BME280;59992;47.490;8.736;2022-07-24T14:51:40;96618.15;;;29.28;37.95
72118;BME280;59992;47.490;8.736;2022-07-24T14:54:31;96613.23;;;29.28;38.51
72118;BME280;59992;47.490;8.736;2022-07-24T14:57:21;96607.13;;;29.28;38.39
72118;BME280;59992;47.490;8.736;2022-07-24T15:00:13;96613.97;;;29.37;38.10
72118;BME280;59992;47.490;8.736;2022-07-24T15:03:04;96608.11;;;29.38;37.84
72118;BME280;59992;47.490;8.736;2022-07-24T15:05:55;96612.16;;;29.41;38.45
72118;BME280;59992;47.490;8.736;2022-07-24T15:08:46;96607.90;;;29.48;37.52